sensor_id;sensor_type;location;lat;lon;timestamp;temperature;humidity
5617;DHT22;2830;50.656;7.568;2023-05-07T00:01:21;12.10;99.90
5617;DHT22;2830;50.656;7.568;2023-05-07T00:03:48;12.10;99.90
5617;DHT22;2830;50.656;7.568;2023-05-07T00:06:15;12.20;99.90
5617;DHT22;2830;50.656;7.568;2023-05-07T00:08:41;12.20;99.90
5617;DHT22;2830;50.656;7.568;2023-05-07T00:11:08;12.20;99.90
5617;DHT22;2830;50.656;7.568;2023-05-07T00:13:37;12.20;99.90
5617;DHT22;2830;50.656;7.568;2023-05-07T00:16:04;12.20;99.90
5617;DHT22;2830;50.656;7.568;2023-05-07T00:18:31;12.20;99.90
5617;DHT22;2830;50.656;7.568;2023-05-07T00:20:58;12.20;99.90
5617;DHT22;2830;50.656;7.568;2023-05-07T00:23:24;12.10;99.90
5617;DHT22;2830;50.656;7.568;2023-05-07T00:25:51;12.00;99.90
5617;DHT22;2830;50.656;7.568;2023-05-07T00:28:18;12.10;99.90
5617;DHT22;2830;50.656;7.568;2023-05-07T00:30:44;12.10;99.90
5617;DHT22;2830;50.656;7.568;2023-05-07T00:33:11;12.20;99.90
5617;DHT22;2830;50.656;7.568;2023-05-07T00:35:38;12.20;99.90
5617;DHT22;2830;50.656;7.568;2023-05-07T00:38:04;12.30;99.90
5617;DHT22;2830;50.656;7.568;2023-05-07T00:40:31;12.30;99.90
5617;DHT22;2830;50.656;7.568;2023-05-07T00:42:58;12.30;99.90
5617;DHT22;2830;50.656;7.568;2023-05-07T00:45:28;12.30;99.90
5617;DHT22;2830;50.656;7.568;2023-05-07T00:47:57;12.40;99.90
5617;DHT22;2830;50.656;7.568;2023-05-07T00:50:25;12.40;99.90
5617;DHT22;2830;50.656;7.568;2023-05-07T00:52:52;12.50;99.90
5617;DHT22;2830;50.656;7.568;2023-05-07T00:55:19;12.40;99.90
5617;DHT22;2830;50.656;7.568;2023-05-07T00:57:47;12.30;99.90
5617;DHT22;2830;50.656;7.568;2023-05-07T01:00:14;12.30;99.90
5617;DHT22;2830;50.656;7.568;2023-05-07T01:02:41;12.30;99.90
5617;DHT22;2830;50.656;7.568;2023-05-07T01:05:11;12.30;99.90
5617;DHT22;2830;50.656;7.568;2023-05-07T01:07:40;12.20;99.90
5617;DHT22;2830;50.656;7.568;2023-05-07T01:10:08;12.30;99.90
5617;DHT22;2830;50.656;7.568;2023-05-07T01:12:37;12.30;99.90
5617;DHT22;2830;50.656;7.568;2023-05-07T01:15:05;12.20;99.90
5617;DHT22;2830;50.656;7.568;2023-05-07T01:17:36;12.20;99.90
5617;DHT22;2830;50.656;7.568;2023-05-07T01:20:04;12.30;99.90
5617;DHT22;2830;50.656;7.568;2023-05-07T01:22:35;12.40;99.90
5617;DHT22;2830;50.656;7.568;2023-05-07T01:25:04;12.40;99.90
5617;DHT22;2830;50.656;7.568;2023-05-07T01:27:31;12.40;99.90
5617;DHT22;2830;50.656;7.568;2023-05-07T01:29:59;12.30;99.90
5617;DHT22;2830;50.656;7.568;2023-05-07T01:32:40;12.30;99.90
5617;DHT22;2830;50.656;7.568;2023-05-07T01:35:11;12.40;99.90
5617;DHT22;2830;50.656;7.568;2023-05-07T01:37:40;12.50;99.90
5617;DHT22;2830;50.656;7.568;2023-05-07T01:40:07;12.50;99.90
5617;DHT22;2830;50.656;7.568;2023-05-07T01:42:35;12.50;99.90
5617;DHT22;2830;50.656;7.568;2023-05-07T01:45:02;12.40;99.90
5617;DHT22;2830;50.656;7.568;2023-05-07T01:47:30;12.50;99.90
5617;DHT22;2830;50.656;7.568;2023-05-07T01:49:57;12.50;99.90
5617;DHT22;2830;50.656;7.568;2023-05-07T01:52:24;12.40;99.90
5617;DHT22;2830;50.656;7.568;2023-05-07T01:54:51;12.40;99.90
5617;DHT22;2830;50.656;7.568;2023-05-07T01:57:18;12.30;99.90
5617;DHT22;2830;50.656;7.568;2023-05-07T01:59:44;12.40;99.90
5617;DHT22;2830;50.656;7.568;2023-05-07T02:02:11;12.50;99.90
5617;DHT22;2830;50.656;7.568;2023-05-07T02:04:38;12.50;99.90
5617;DHT22;2830;50.656;7.568;2023-05-07T02:07:05;12.50;99.90
5617;DHT22;2830;50.656;7.568;2023-05-07T02:09:31;12.40;99.90
5617;DHT22;2830;50.656;7.568;2023-05-07T02:11:58;12.30;99.90
5617;DHT22;2830;50.656;7.568;2023-05-07T02:14:24;12.30;99.90
5617;DHT22;2830;50.656;7.568;2023-05-07T02:16:52;12.30;99.90
5617;DHT22;2830;50.656;7.568;2023-05-07T02:19:19;12.30;99.90
5617;DHT22;2830;50.656;7.568;2023-05-07T02:21:47;12.30;99.90
5617;DHT22;2830;50.656;7.568;2023-05-07T02:24:14;12.40;99.90
5617;DHT22;2830;50.656;7.568;2023-05-07T02:26:41;12.30;99.90
5617;DHT22;2830;50.656;7.568;2023-05-07T02:29:07;12.30;99.90
5617;DHT22;2830;50.656;7.568;2023-05-07T02:31:34;12.30;99.90
5617;DHT22;2830;50.656;7.568;2023-05-07T02:34:01;12.30;99.90
5617;DHT22;2830;50.656;7.568;2023-05-07T02:36:28;12.30;99.90
5617;DHT22;2830;50.656;7.568;2023-05-07T02:38:55;12.30;99.90
5617;DHT22;2830;50.656;7.568;2023-05-07T02:41:21;12.30;99.90
5617;DHT22;2830;50.656;7.568;2023-05-07T02:43:48;12.30;99.90
5617;DHT22;2830;50.656;7.568;2023-05-07T02:46:15;12.40;99.90
5617;DHT22;2830;50.656;7.568;2023-05-07T02:48:42;12.40;99.90
5617;DHT22;2830;50.656;7.568;2023-05-07T02:51:09;12.40;99.90
5617;DHT22;2830;50.656;7.568;2023-05-07T02:53:36;12.40;99.90
5617;DHT22;2830;50.656;7.568;2023-05-07T02:56:03;12.40;99.90
5617;DHT22;2830;50.656;7.568;2023-05-07T02:58:29;12.40;99.90
5617;DHT22;2830;50.656;7.568;2023-05-07T03:00:56;12.40;99.90
5617;DHT22;2830;50.656;7.568;2023-05-07T03:03:23;12.30;99.90
5617;DHT22;2830;50.656;7.568;2023-05-07T03:05:49;12.30;99.90
5617;DHT22;2830;50.656;7.568;2023-05-07T03:08:16;12.30;99.90
5617;DHT22;2830;50.656;7.568;2023-05-07T03:10:43;12.30;99.90
5617;DHT22;2830;50.656;7.568;2023-05-07T03:13:09;12.30;99.90
5617;DHT22;2830;50.656;7.568;2023-05-07T03:15:36;12.30;99.90
5617;DHT22;2830;50.656;7.568;2023-05-07T03:18:03;12.30;99.90
5617;DHT22;2830;50.656;7.568;2023-05-07T03:20:31;12.30;99.90
5617;DHT22;2830;50.656;7.568;2023-05-07T03:22:58;12.30;99.90
5617;DHT22;2830;50.656;7.568;2023-05-07T03:25:24;12.20;99.90
5617;DHT22;2830;50.656;7.568;2023-05-07T03:27:51;12.20;99.90
5617;DHT22;2830;50.656;7.568;2023-05-07T03:30:19;12.10;99.90
5617;DHT22;2830;50.656;7.568;2023-05-07T03:32:46;12.00;99.90
5617;DHT22;2830;50.656;7.568;2023-05-07T03:35:13;12.00;99.90
5617;DHT22;2830;50.656;7.568;2023-05-07T03:37:40;12.00;99.90
5617;DHT22;2830;50.656;7.568;2023-05-07T03:40:07;12.00;99.90
5617;DHT22;2830;50.656;7.568;2023-05-07T03:42:36;12.00;99.90
5617;DHT22;2830;50.656;7.568;2023-05-07T03:45:03;12.00;99.90
5617;DHT22;2830;50.656;7.568;2023-05-07T03:47:29;11.90;99.90
5617;DHT22;2830;50.656;7.568;2023-05-07T03:49:56;11.90;99.90
5617;DHT22;2830;50.656;7.568;2023-05-07T03:52:23;11.90;99.90
5617;DHT22;2830;50.656;7.568;2023-05-07T03:54:53;11.90;99.90
5617;DHT22;2830;50.656;7.568;2023-05-07T03:57:20;11.80;99.90
5617;DHT22;2830;50.656;7.568;2023-05-07T03:59:46;11.80;99.90
5617;DHT22;2830;50.656;7.568;2023-05-07T04:02:13;11.80;99.90
5617;DHT22;2830;50.656;7.568;2023-05-07T04:04:40;11.80;99.90
5617;DHT22;2830;50.656;7.568;2023-05-07T04:07:06;11.80;99.90
5617;DHT22;2830;50.656;7.568;2023-05-07T04:09:33;11.80;99.90
5617;DHT22;2830;50.656;7.568;2023-05-07T04:12:00;11.80;99.90
5617;DHT22;2830;50.656;7.568;2023-05-07T04:14:27;11.90;99.90
5617;DHT22;2830;50.656;7.568;2023-05-07T04:16:54;11.90;99.90
5617;DHT22;2830;50.656;7.568;2023-05-07T04:19:21;11.80;99.90
5617;DHT22;2830;50.656;7.568;2023-05-07T04:21:47;11.90;99.90
5617;DHT22;2830;50.656;7.568;2023-05-07T04:24:14;11.90;99.90
5617;DHT22;2830;50.656;7.568;2023-05-07T04:26:41;11.80;99.90
5617;DHT22;2830;50.656;7.568;2023-05-07T04:29:08;11.80;99.90
5617;DHT22;2830;50.656;7.568;2023-05-07T04:31:35;11.90;99.90
5617;DHT22;2830;50.656;7.568;2023-05-07T04:34:01;11.90;99.90
5617;DHT22;2830;50.656;7.568;2023-05-07T04:36:28;11.90;99.90
5617;DHT22;2830;50.656;7.568;2023-05-07T04:38:55;12.00;99.90
5617;DHT22;2830;50.656;7.568;2023-05-07T04:41:22;12.00;99.90
5617;DHT22;2830;50.656;7.568;2023-05-07T04:43:48;12.00;99.90
5617;DHT22;2830;50.656;7.568;2023-05-07T04:46:15;12.00;99.90
5617;DHT22;2830;50.656;7.568;2023-05-07T04:48:42;12.00;99.90
5617;DHT22;2830;50.656;7.568;2023-05-07T04:51:09;12.10;99.90
5617;DHT22;2830;50.656;7.568;2023-05-07T04:53:35;12.20;99.90
5617;DHT22;2830;50.656;7.568;2023-05-07T04:56:02;12.30;99.90
5617;DHT22;2830;50.656;7.568;2023-05-07T04:58:29;12.30;99.90
5617;DHT22;2830;50.656;7.568;2023-05-07T05:00:59;12.30;99.90
5617;DHT22;2830;50.656;7.568;2023-05-07T05:03:27;12.40;99.90
5617;DHT22;2830;50.656;7.568;2023-05-07T05:05:53;12.50;99.90
5617;DHT22;2830;50.656;7.568;2023-05-07T05:08:20;12.60;99.90
5617;DHT22;2830;50.656;7.568;2023-05-07T05:10:46;12.70;99.90
5617;DHT22;2830;50.656;7.568;2023-05-07T05:13:15;12.80;99.90
5617;DHT22;2830;50.656;7.568;2023-05-07T05:15:42;12.90;99.90
5617;DHT22;2830;50.656;7.568;2023-05-07T05:18:08;12.90;99.90
5617;DHT22;2830;50.656;7.568;2023-05-07T05:20:35;12.90;99.90
5617;DHT22;2830;50.656;7.568;2023-05-07T05:23:02;12.90;99.90
5617;DHT22;2830;50.656;7.568;2023-05-07T05:25:28;12.90;99.90
5617;DHT22;2830;50.656;7.568;2023-05-07T05:27:55;13.10;99.90
5617;DHT22;2830;50.656;7.568;2023-05-07T05:30:22;13.00;99.90
5617;DHT22;2830;50.656;7.568;2023-05-07T05:32:48;13.00;99.90
5617;DHT22;2830;50.656;7.568;2023-05-07T05:35:15;12.90;99.90
5617;DHT22;2830;50.656;7.568;2023-05-07T05:37:42;13.00;99.90
5617;DHT22;2830;50.656;7.568;2023-05-07T05:40:09;12.90;99.90
5617;DHT22;2830;50.656;7.568;2023-05-07T05:42:36;13.00;99.90
5617;DHT22;2830;50.656;7.568;2023-05-07T05:45:03;13.10;99.90
5617;DHT22;2830;50.656;7.568;2023-05-07T05:47:29;13.30;99.90
5617;DHT22;2830;50.656;7.568;2023-05-07T05:49:56;13.50;99.90
5617;DHT22;2830;50.656;7.568;2023-05-07T05:52:23;13.80;99.90
5617;DHT22;2830;50.656;7.568;2023-05-07T05:54:50;14.00;99.90
5617;DHT22;2830;50.656;7.568;2023-05-07T05:57:16;14.20;99.90
5617;DHT22;2830;50.656;7.568;2023-05-07T05:59:43;14.40;99.90
5617;DHT22;2830;50.656;7.568;2023-05-07T06:02:10;14.40;99.90
5617;DHT22;2830;50.656;7.568;2023-05-07T06:04:37;14.50;99.90
5617;DHT22;2830;50.656;7.568;2023-05-07T06:07:03;14.60;99.90
5617;DHT22;2830;50.656;7.568;2023-05-07T06:09:30;14.80;99.90
5617;DHT22;2830;50.656;7.568;2023-05-07T06:11:57;14.90;99.90
5617;DHT22;2830;50.656;7.568;2023-05-07T06:14:26;15.10;99.90
5617;DHT22;2830;50.656;7.568;2023-05-07T06:16:52;15.30;99.90
5617;DHT22;2830;50.656;7.568;2023-05-07T06:19:19;15.30;99.90
5617;DHT22;2830;50.656;7.568;2023-05-07T06:21:50;15.30;99.90
5617;DHT22;2830;50.656;7.568;2023-05-07T06:24:16;15.40;99.90
5617;DHT22;2830;50.656;7.568;2023-05-07T06:26:43;15.50;99.90
5617;DHT22;2830;50.656;7.568;2023-05-07T06:29:09;15.60;99.90
5617;DHT22;2830;50.656;7.568;2023-05-07T06:31:36;15.60;99.90
5617;DHT22;2830;50.656;7.568;2023-05-07T06:34:03;15.60;99.90
5617;DHT22;2830;50.656;7.568;2023-05-07T06:36:29;15.80;99.90
5617;DHT22;2830;50.656;7.568;2023-05-07T06:38:56;16.10;99.90
5617;DHT22;2830;50.656;7.568;2023-05-07T06:41:23;16.70;99.90
5617;DHT22;2830;50.656;7.568;2023-05-07T06:43:49;17.20;99.90
5617;DHT22;2830;50.656;7.568;2023-05-07T06:46:16;17.60;99.90
5617;DHT22;2830;50.656;7.568;2023-05-07T06:48:43;17.90;99.90
5617;DHT22;2830;50.656;7.568;2023-05-07T06:51:09;18.20;99.20
5617;DHT22;2830;50.656;7.568;2023-05-07T06:53:36;18.80;98.10
5617;DHT22;2830;50.656;7.568;2023-05-07T06:56:03;18.90;97.50
5617;DHT22;2830;50.656;7.568;2023-05-07T06:58:29;18.90;97.40
5617;DHT22;2830;50.656;7.568;2023-05-07T07:00:56;19.00;97.10
5617;DHT22;2830;50.656;7.568;2023-05-07T07:03:23;19.10;97.10
5617;DHT22;2830;50.656;7.568;2023-05-07T07:05:53;19.10;97.00
5617;DHT22;2830;50.656;7.568;2023-05-07T07:08:21;19.20;97.10
5617;DHT22;2830;50.656;7.568;2023-05-07T07:10:48;19.50;96.40
5617;DHT22;2830;50.656;7.568;2023-05-07T07:13:15;19.70;95.50
5617;DHT22;2830;50.656;7.568;2023-05-07T07:15:43;19.80;95.00
5617;DHT22;2830;50.656;7.568;2023-05-07T07:18:10;20.00;94.80
5617;DHT22;2830;50.656;7.568;2023-05-07T07:20:37;20.00;94.60
5617;DHT22;2830;50.656;7.568;2023-05-07T07:23:03;20.20;94.50
5617;DHT22;2830;50.656;7.568;2023-05-07T07:25:30;20.30;94.90
5617;DHT22;2830;50.656;7.568;2023-05-07T07:27:57;20.20;93.30
5617;DHT22;2830;50.656;7.568;2023-05-07T07:30:24;20.10;92.90
5617;DHT22;2830;50.656;7.568;2023-05-07T07:32:51;20.30;93.10
5617;DHT22;2830;50.656;7.568;2023-05-07T07:35:19;20.10;90.00
5617;DHT22;2830;50.656;7.568;2023-05-07T07:37:46;20.00;90.20
5617;DHT22;2830;50.656;7.568;2023-05-07T07:40:14;20.00;89.70
5617;DHT22;2830;50.656;7.568;2023-05-07T07:42:41;20.20;87.40
5617;DHT22;2830;50.656;7.568;2023-05-07T07:45:08;20.50;85.90
5617;DHT22;2830;50.656;7.568;2023-05-07T07:47:34;20.40;87.00
5617;DHT22;2830;50.656;7.568;2023-05-07T07:50:01;20.30;85.00
5617;DHT22;2830;50.656;7.568;2023-05-07T07:52:28;20.50;84.20
5617;DHT22;2830;50.656;7.568;2023-05-07T07:54:54;20.90;85.00
5617;DHT22;2830;50.656;7.568;2023-05-07T07:57:21;21.40;80.70
5617;DHT22;2830;50.656;7.568;2023-05-07T07:59:48;21.60;77.00
5617;DHT22;2830;50.656;7.568;2023-05-07T08:02:15;21.70;77.20
5617;DHT22;2830;50.656;7.568;2023-05-07T08:04:42;22.10;77.30
5617;DHT22;2830;50.656;7.568;2023-05-07T08:07:10;22.10;76.10
5617;DHT22;2830;50.656;7.568;2023-05-07T08:09:38;22.10;76.20
5617;DHT22;2830;50.656;7.568;2023-05-07T08:12:07;22.10;74.70
5617;DHT22;2830;50.656;7.568;2023-05-07T08:14:34;22.30;75.50
5617;DHT22;2830;50.656;7.568;2023-05-07T08:17:03;21.90;75.60
5617;DHT22;2830;50.656;7.568;2023-05-07T08:19:29;21.80;75.20
5617;DHT22;2830;50.656;7.568;2023-05-07T08:21:56;21.90;74.70
5617;DHT22;2830;50.656;7.568;2023-05-07T08:24:23;22.10;73.80
5617;DHT22;2830;50.656;7.568;2023-05-07T08:26:49;22.20;73.70
5617;DHT22;2830;50.656;7.568;2023-05-07T08:29:16;22.20;73.60
5617;DHT22;2830;50.656;7.568;2023-05-07T08:31:43;22.50;75.20
5617;DHT22;2830;50.656;7.568;2023-05-07T08:34:09;22.60;71.80
5617;DHT22;2830;50.656;7.568;2023-05-07T08:36:36;23.20;72.90
5617;DHT22;2830;50.656;7.568;2023-05-07T08:39:02;23.60;70.70
5617;DHT22;2830;50.656;7.568;2023-05-07T08:41:30;23.70;68.50
5617;DHT22;2830;50.656;7.568;2023-05-07T08:43:58;23.90;70.90
5617;DHT22;2830;50.656;7.568;2023-05-07T08:46:31;23.80;67.00
5617;DHT22;2830;50.656;7.568;2023-05-07T08:48:58;24.20;68.10
5617;DHT22;2830;50.656;7.568;2023-05-07T08:51:26;24.30;67.30
5617;DHT22;2830;50.656;7.568;2023-05-07T08:53:53;25.00;68.70
5617;DHT22;2830;50.656;7.568;2023-05-07T08:56:20;25.40;63.40
5617;DHT22;2830;50.656;7.568;2023-05-07T08:58:48;25.20;61.50
5617;DHT22;2830;50.656;7.568;2023-05-07T09:01:16;25.60;63.10
5617;DHT22;2830;50.656;7.568;2023-05-07T09:03:45;25.90;61.90
5617;DHT22;2830;50.656;7.568;2023-05-07T09:06:12;25.90;60.10
5617;DHT22;2830;50.656;7.568;2023-05-07T09:08:39;25.50;59.80
5617;DHT22;2830;50.656;7.568;2023-05-07T09:11:06;25.00;59.50
5617;DHT22;2830;50.656;7.568;2023-05-07T09:13:32;24.80;61.90
5617;DHT22;2830;50.656;7.568;2023-05-07T09:16:09;24.50;61.40
5617;DHT22;2830;50.656;7.568;2023-05-07T09:18:43;24.60;63.00
5617;DHT22;2830;50.656;7.568;2023-05-07T09:21:11;24.60;61.50
5617;DHT22;2830;50.656;7.568;2023-05-07T09:23:38;24.90;61.70
5617;DHT22;2830;50.656;7.568;2023-05-07T09:26:06;24.80;60.80
5617;DHT22;2830;50.656;7.568;2023-05-07T09:28:39;24.90;61.20
5617;DHT22;2830;50.656;7.568;2023-05-07T09:31:07;25.30;59.60
5617;DHT22;2830;50.656;7.568;2023-05-07T09:33:34;25.20;62.40
5617;DHT22;2830;50.656;7.568;2023-05-07T09:36:05;25.20;60.60
5617;DHT22;2830;50.656;7.568;2023-05-07T09:38:37;24.40;62.70
5617;DHT22;2830;50.656;7.568;2023-05-07T09:41:07;24.60;60.30
5617;DHT22;2830;50.656;7.568;2023-05-07T09:43:35;24.90;62.60
5617;DHT22;2830;50.656;7.568;2023-05-07T09:46:12;25.20;58.00
5617;DHT22;2830;50.656;7.568;2023-05-07T09:48:40;25.40;57.80
5617;DHT22;2830;50.656;7.568;2023-05-07T09:51:30;25.40;60.40
5617;DHT22;2830;50.656;7.568;2023-05-07T09:54:00;25.70;59.00
5617;DHT22;2830;50.656;7.568;2023-05-07T09:56:30;25.70;60.00
5617;DHT22;2830;50.656;7.568;2023-05-07T09:58:59;26.40;58.90
5617;DHT22;2830;50.656;7.568;2023-05-07T10:01:27;27.20;62.00
5617;DHT22;2830;50.656;7.568;2023-05-07T10:03:54;28.20;56.30
5617;DHT22;2830;50.656;7.568;2023-05-07T10:06:23;29.20;51.00
5617;DHT22;2830;50.656;7.568;2023-05-07T10:08:52;30.50;49.50
5617;DHT22;2830;50.656;7.568;2023-05-07T10:11:19;30.60;46.40
5617;DHT22;2830;50.656;7.568;2023-05-07T10:13:48;31.90;46.00
5617;DHT22;2830;50.656;7.568;2023-05-07T10:16:15;32.00;47.40
5617;DHT22;2830;50.656;7.568;2023-05-07T10:18:43;31.30;45.00
5617;DHT22;2830;50.656;7.568;2023-05-07T10:21:20;30.20;45.70
5617;DHT22;2830;50.656;7.568;2023-05-07T10:26:25;30.60;50.60
5617;DHT22;2830;50.656;7.568;2023-05-07T10:29:01;30.90;46.10
5617;DHT22;2830;50.656;7.568;2023-05-07T10:34:21;28.50;47.60
5617;DHT22;2830;50.656;7.568;2023-05-07T10:36:49;27.40;50.30
5617;DHT22;2830;50.656;7.568;2023-05-07T10:39:17;26.40;52.20
5617;DHT22;2830;50.656;7.568;2023-05-07T10:41:44;26.10;53.80
5617;DHT22;2830;50.656;7.568;2023-05-07T10:44:10;25.90;55.00
5617;DHT22;2830;50.656;7.568;2023-05-07T10:46:37;27.50;52.50
5617;DHT22;2830;50.656;7.568;2023-05-07T10:51:35;31.20;46.30
5617;DHT22;2830;50.656;7.568;2023-05-07T10:56:41;32.60;42.50
5617;DHT22;2830;50.656;7.568;2023-05-07T11:01:55;32.20;41.70
5617;DHT22;2830;50.656;7.568;2023-05-07T11:04:22;32.70;44.30
5617;DHT22;2830;50.656;7.568;2023-05-07T11:10:01;30.50;42.40
5617;DHT22;2830;50.656;7.568;2023-05-07T11:15:03;29.80;43.80
5617;DHT22;2830;50.656;7.568;2023-05-07T11:17:31;30.00;44.10
5617;DHT22;2830;50.656;7.568;2023-05-07T11:20:03;29.10;44.00
5617;DHT22;2830;50.656;7.568;2023-05-07T11:25:02;31.00;42.30
5617;DHT22;2830;50.656;7.568;2023-05-07T11:27:29;31.00;39.30
5617;DHT22;2830;50.656;7.568;2023-05-07T11:29:56;30.20;41.50
5617;DHT22;2830;50.656;7.568;2023-05-07T11:32:32;28.90;45.60
5617;DHT22;2830;50.656;7.568;2023-05-07T11:35:00;28.00;47.00
5617;DHT22;2830;50.656;7.568;2023-05-07T11:37:28;27.10;48.20
5617;DHT22;2830;50.656;7.568;2023-05-07T11:40:07;26.40;53.30
5617;DHT22;2830;50.656;7.568;2023-05-07T11:42:39;26.40;49.30
5617;DHT22;2830;50.656;7.568;2023-05-07T11:45:07;26.90;47.20
5617;DHT22;2830;50.656;7.568;2023-05-07T11:47:34;26.70;48.50
5617;DHT22;2830;50.656;7.568;2023-05-07T11:50:07;26.60;49.20
5617;DHT22;2830;50.656;7.568;2023-05-07T11:52:35;26.10;49.60
5617;DHT22;2830;50.656;7.568;2023-05-07T11:55:02;26.10;51.80
5617;DHT22;2830;50.656;7.568;2023-05-07T11:57:33;25.90;52.10
5617;DHT22;2830;50.656;7.568;2023-05-07T12:00:00;25.60;51.70
5617;DHT22;2830;50.656;7.568;2023-05-07T12:02:28;24.90;52.60
5617;DHT22;2830;50.656;7.568;2023-05-07T12:04:55;24.80;55.20
5617;DHT22;2830;50.656;7.568;2023-05-07T12:07:23;24.60;55.60
5617;DHT22;2830;50.656;7.568;2023-05-07T12:09:50;24.40;55.30
5617;DHT22;2830;50.656;7.568;2023-05-07T12:12:17;24.20;56.90
5617;DHT22;2830;50.656;7.568;2023-05-07T12:14:45;24.10;56.70
5617;DHT22;2830;50.656;7.568;2023-05-07T12:17:13;24.20;59.30
5617;DHT22;2830;50.656;7.568;2023-05-07T12:19:42;24.50;57.20
5617;DHT22;2830;50.656;7.568;2023-05-07T12:22:09;24.80;55.90
5617;DHT22;2830;50.656;7.568;2023-05-07T12:24:47;24.90;55.30
5617;DHT22;2830;50.656;7.568;2023-05-07T12:27:15;25.20;54.30
5617;DHT22;2830;50.656;7.568;2023-05-07T12:29:50;25.30;54.70
5617;DHT22;2830;50.656;7.568;2023-05-07T12:32:18;24.90;54.20
5617;DHT22;2830;50.656;7.568;2023-05-07T12:34:46;24.60;55.30
5617;DHT22;2830;50.656;7.568;2023-05-07T12:37:16;24.50;56.80
5617;DHT22;2830;50.656;7.568;2023-05-07T12:40:03;24.10;55.60
5617;DHT22;2830;50.656;7.568;2023-05-07T12:42:33;23.60;57.40
5617;DHT22;2830;50.656;7.568;2023-05-07T12:45:15;23.50;58.80
5617;DHT22;2830;50.656;7.568;2023-05-07T12:47:44;23.50;59.00
5617;DHT22;2830;50.656;7.568;2023-05-07T12:50:12;23.50;57.70
5617;DHT22;2830;50.656;7.568;2023-05-07T12:52:40;23.50;57.60
5617;DHT22;2830;50.656;7.568;2023-05-07T12:55:08;23.60;56.90
5617;DHT22;2830;50.656;7.568;2023-05-07T12:57:47;23.50;57.60
5617;DHT22;2830;50.656;7.568;2023-05-07T13:00:15;23.40;57.30
5617;DHT22;2830;50.656;7.568;2023-05-07T13:02:43;23.30;61.40
5617;DHT22;2830;50.656;7.568;2023-05-07T13:05:13;23.50;55.60
5617;DHT22;2830;50.656;7.568;2023-05-07T13:07:40;23.80;53.70
5617;DHT22;2830;50.656;7.568;2023-05-07T13:10:08;24.00;53.40
5617;DHT22;2830;50.656;7.568;2023-05-07T13:12:35;24.50;51.10
5617;DHT22;2830;50.656;7.568;2023-05-07T13:15:02;24.80;52.60
5617;DHT22;2830;50.656;7.568;2023-05-07T13:17:31;25.30;51.50
5617;DHT22;2830;50.656;7.568;2023-05-07T13:19:58;25.50;49.50
5617;DHT22;2830;50.656;7.568;2023-05-07T13:22:25;25.90;57.30
5617;DHT22;2830;50.656;7.568;2023-05-07T13:24:51;26.50;55.30
5617;DHT22;2830;50.656;7.568;2023-05-07T13:27:18;27.20;54.10
5617;DHT22;2830;50.656;7.568;2023-05-07T13:29:45;27.50;49.00
5617;DHT22;2830;50.656;7.568;2023-05-07T13:32:12;27.80;50.10
5617;DHT22;2830;50.656;7.568;2023-05-07T13:34:40;27.70;46.30
5617;DHT22;2830;50.656;7.568;2023-05-07T13:37:06;27.30;48.20
5617;DHT22;2830;50.656;7.568;2023-05-07T13:39:37;27.00;49.10
5617;DHT22;2830;50.656;7.568;2023-05-07T13:42:03;26.70;50.90
5617;DHT22;2830;50.656;7.568;2023-05-07T13:44:30;26.40;49.40
5617;DHT22;2830;50.656;7.568;2023-05-07T13:46:56;25.90;49.10
5617;DHT22;2830;50.656;7.568;2023-05-07T13:49:23;25.40;50.60
5617;DHT22;2830;50.656;7.568;2023-05-07T13:51:50;24.90;50.60
5617;DHT22;2830;50.656;7.568;2023-05-07T13:54:17;24.60;52.10
5617;DHT22;2830;50.656;7.568;2023-05-07T13:56:45;24.30;53.20
5617;DHT22;2830;50.656;7.568;2023-05-07T13:59:12;24.20;54.60
5617;DHT22;2830;50.656;7.568;2023-05-07T14:01:40;24.10;55.20
5617;DHT22;2830;50.656;7.568;2023-05-07T14:04:07;24.00;55.20
5617;DHT22;2830;50.656;7.568;2023-05-07T14:06:38;24.00;56.30
5617;DHT22;2830;50.656;7.568;2023-05-07T14:09:05;24.00;56.00
5617;DHT22;2830;50.656;7.568;2023-05-07T14:11:32;23.90;56.10
5617;DHT22;2830;50.656;7.568;2023-05-07T14:14:01;23.80;57.70
5617;DHT22;2830;50.656;7.568;2023-05-07T14:16:28;23.80;56.80
5617;DHT22;2830;50.656;7.568;2023-05-07T14:18:54;23.80;55.60
5617;DHT22;2830;50.656;7.568;2023-05-07T14:21:23;23.80;56.40
5617;DHT22;2830;50.656;7.568;2023-05-07T14:23:50;23.70;57.30
5617;DHT22;2830;50.656;7.568;2023-05-07T14:26:17;23.50;57.40
5617;DHT22;2830;50.656;7.568;2023-05-07T14:28:44;23.40;60.90
5617;DHT22;2830;50.656;7.568;2023-05-07T14:31:13;23.10;58.60
5617;DHT22;2830;50.656;7.568;2023-05-07T14:33:39;22.80;64.80
5617;DHT22;2830;50.656;7.568;2023-05-07T14:36:08;22.40;68.70
5617;DHT22;2830;50.656;7.568;2023-05-07T14:38:35;22.10;71.80
5617;DHT22;2830;50.656;7.568;2023-05-07T14:41:02;21.70;74.20
5617;DHT22;2830;50.656;7.568;2023-05-07T14:43:29;21.40;81.00
5617;DHT22;2830;50.656;7.568;2023-05-07T14:45:55;21.10;83.50
5617;DHT22;2830;50.656;7.568;2023-05-07T14:48:22;20.70;87.10
5617;DHT22;2830;50.656;7.568;2023-05-07T14:50:50;20.40;91.00
5617;DHT22;2830;50.656;7.568;2023-05-07T14:53:16;20.20;93.10
5617;DHT22;2830;50.656;7.568;2023-05-07T14:55:43;20.10;95.20
5617;DHT22;2830;50.656;7.568;2023-05-07T14:58:10;20.10;96.70
5617;DHT22;2830;50.656;7.568;2023-05-07T15:00:37;20.00;99.10
5617;DHT22;2830;50.656;7.568;2023-05-07T15:03:08;19.90;99.60
5617;DHT22;2830;50.656;7.568;2023-05-07T15:05:38;19.90;99.90
5617;DHT22;2830;50.656;7.568;2023-05-07T15:08:04;19.80;99.90
5617;DHT22;2830;50.656;7.568;2023-05-07T15:10:35;19.60;99.90
5617;DHT22;2830;50.656;7.568;2023-05-07T15:13:08;19.40;99.90
5617;DHT22;2830;50.656;7.568;2023-05-07T15:15:39;19.20;99.90
5617;DHT22;2830;50.656;7.568;2023-05-07T15:18:06;19.30;99.90
5617;DHT22;2830;50.656;7.568;2023-05-07T15:20:33;19.30;99.90
5617;DHT22;2830;50.656;7.568;2023-05-07T15:22:59;19.30;99.90
5617;DHT22;2830;50.656;7.568;2023-05-07T15:25:26;19.30;99.90
5617;DHT22;2830;50.656;7.568;2023-05-07T15:27:53;19.10;99.90
5617;DHT22;2830;50.656;7.568;2023-05-07T15:30:19;19.10;99.90
5617;DHT22;2830;50.656;7.568;2023-05-07T15:32:46;19.20;99.90
5617;DHT22;2830;50.656;7.568;2023-05-07T15:35:13;19.20;99.90
5617;DHT22;2830;50.656;7.568;2023-05-07T15:37:40;19.20;99.90
5617;DHT22;2830;50.656;7.568;2023-05-07T15:40:08;19.30;99.90
5617;DHT22;2830;50.656;7.568;2023-05-07T15:42:34;19.20;99.90
5617;DHT22;2830;50.656;7.568;2023-05-07T15:45:01;19.20;99.90
5617;DHT22;2830;50.656;7.568;2023-05-07T15:47:29;19.20;99.90
5617;DHT22;2830;50.656;7.568;2023-05-07T15:49:58;19.20;99.90
5617;DHT22;2830;50.656;7.568;2023-05-07T15:52:25;19.20;99.90
5617;DHT22;2830;50.656;7.568;2023-05-07T15:54:53;19.30;99.90
5617;DHT22;2830;50.656;7.568;2023-05-07T15:57:20;19.30;99.90
5617;DHT22;2830;50.656;7.568;2023-05-07T15:59:47;19.30;99.90
5617;DHT22;2830;50.656;7.568;2023-05-07T16:02:14;19.20;99.30
5617;DHT22;2830;50.656;7.568;2023-05-07T16:04:41;19.10;99.90
5617;DHT22;2830;50.656;7.568;2023-05-07T16:07:07;19.00;99.50
5617;DHT22;2830;50.656;7.568;2023-05-07T16:09:37;19.00;99.90
5617;DHT22;2830;50.656;7.568;2023-05-07T16:12:04;19.00;99.80
5617;DHT22;2830;50.656;7.568;2023-05-07T16:14:31;18.90;99.90
5617;DHT22;2830;50.656;7.568;2023-05-07T16:16:58;18.80;99.90
5617;DHT22;2830;50.656;7.568;2023-05-07T16:19:24;18.70;99.90
5617;DHT22;2830;50.656;7.568;2023-05-07T16:21:51;18.60;99.90
5617;DHT22;2830;50.656;7.568;2023-05-07T16:24:18;18.60;99.90
5617;DHT22;2830;50.656;7.568;2023-05-07T16:26:45;18.50;99.90